Time,TemperatureF,DewpointF,PressureIn,WindDirection,WindDirectionDegrees,WindSpeedMPH,WindSpeedGustMPH,Humidity,HourlyPrecipIn,Conditions,Clouds,dailyrainin,SoftwareType,DateUTC
2013-05-08 00:02:00,58.3,48.9,28.91,SSE,150,0.0,0.0,71,0.00,,SKC,0.00,VWS V14.00,2013-05-08 04:02:00,
2013-05-08 00:07:00,58.3,48.9,28.91,SSE,150,0.0,0.0,71,0.00,,SKC,0.00,VWS V14.00,2013-05-08 04:07:00,
2013-05-08 00:09:00,58.3,49.3,28.91,SSE,150,0.0,0.0,72,0.00,,SKC,0.00,VWS V14.00,2013-05-08 04:09:00,
2013-05-08 00:17:00,58.1,49.1,28.91,SSE,153,0.0,0.0,72,0.00,,SKC,0.00,VWS V14.00,2013-05-08 04:17:00,
2013-05-08 00:19:00,58.1,49.1,28.91,SSE,153,0.0,0.0,72,0.00,,SKC,0.00,VWS V14.00,2013-05-08 04:19:00,
2013-05-08 00:27:00,57.9,49.0,28.91,SSE,153,0.0,0.0,72,0.00,,SKC,0.00,VWS V14.00,2013-05-08 04:27:00,
2013-05-08 00:32:00,57.9,49.0,28.91,SE,135,0.0,0.0,72,0.00,,SKC,0.00,VWS V14.00,2013-05-08 04:32:00,
2013-05-08 00:37:00,57.9,49.3,28.91,SE,135,0.0,0.0,73,0.00,,SKC,0.00,VWS V14.00,2013-05-08 04:37:00,
2013-05-08 00:42:00,57.9,49.3,28.91,SE,135,0.0,0.0,73,0.00,,SKC,0.00,VWS V14.00,2013-05-08 04:42:00,
2013-05-08 00:47:00,57.9,49.3,28.91,SE,135,0.0,0.0,73,0.00,,SKC,0.00,VWS V14.00,2013-05-08 04:47:00,
2013-05-08 00:52:00,57.7,49.2,28.91,SSW,205,0.0,0.0,73,0.00,,SKC,0.00,VWS V14.00,2013-05-08 04:52:00,
2013-05-08 00:57:00,57.7,49.2,28.91,SSE,158,0.0,0.0,73,0.00,,SKC,0.00,VWS V14.00,2013-05-08 04:57:00,
2013-05-08 01:02:00,57.7,49.2,28.91,SSE,158,0.0,0.0,73,0.00,,SKC,0.00,VWS V14.00,2013-05-08 05:02:00,
2013-05-08 01:07:00,57.6,49.0,28.91,SSE,168,0.0,0.0,73,0.00,,SKC,0.00,VWS V14.00,2013-05-08 05:07:00,
2013-05-08 01:12:00,57.6,49.3,28.91,SSE,168,0.0,0.0,74,0.00,,SKC,0.00,VWS V14.00,2013-05-08 05:12:00,
2013-05-08 01:17:00,57.6,49.3,28.91,SSE,168,0.0,0.0,74,0.00,,SKC,0.00,VWS V14.00,2013-05-08 05:17:00,
2013-05-08 01:22:00,57.6,49.3,28.91,SSE,168,0.0,0.0,74,0.00,,SKC,0.00,VWS V14.00,2013-05-08 05:22:00,
2013-05-08 01:27:00,57.6,49.3,28.91,SSE,168,0.0,0.0,74,0.00,,SKC,0.00,VWS V14.00,2013-05-08 05:27:00,
2013-05-08 01:32:00,57.4,49.2,28.91,SSE,168,0.0,0.0,74,0.00,,SKC,0.00,VWS V14.00,2013-05-08 05:32:00,
2013-05-08 01:37:00,57.4,49.2,28.91,SSE,168,0.0,0.0,74,0.00,,SKC,0.00,VWS V14.00,2013-05-08 05:37:00,
2013-05-08 01:42:00,57.4,49.2,28.91,SSE,168,0.0,0.0,74,0.00,,SKC,0.00,VWS V14.00,2013-05-08 05:42:00,
2013-05-08 01:47:00,57.4,49.5,28.91,SSE,168,0.0,0.0,75,0.00,,SKC,0.00,VWS V14.00,2013-05-08 05:47:00,
2013-05-08 01:52:00,57.4,49.5,28.91,SSE,168,0.0,0.0,75,0.00,,SKC,0.00,VWS V14.00,2013-05-08 05:52:00,
2013-05-08 01:57:00,57.4,49.5,28.91,SSE,168,0.0,0.0,75,0.00,,SKC,0.00,VWS V14.00,2013-05-08 05:57:00,
2013-05-08 02:02:00,57.4,49.5,28.91,SSE,168,0.0,0.0,75,0.00,,SKC,0.00,VWS V14.00,2013-05-08 06:02:00,
2013-05-08 02:07:00,57.4,49.5,28.91,SSE,168,0.0,0.0,75,0.00,,SKC,0.00,VWS V14.00,2013-05-08 06:07:00,
2013-05-08 02:12:00,57.2,49.4,28.91,SSE,168,0.0,0.0,75,0.00,,SKC,0.00,VWS V14.00,2013-05-08 06:12:00,
2013-05-08 02:17:00,57.2,49.4,28.91,South,174,0.0,0.0,75,0.00,,SKC,0.00,VWS V14.00,2013-05-08 06:17:00,
2013-05-08 02:22:00,57.2,49.7,28.91,South,186,0.0,0.0,76,0.00,,SKC,0.00,VWS V14.00,2013-05-08 06:22:00,
2013-05-08 02:27:00,57.2,49.7,28.91,East,95,0.0,3.1,76,0.00,,SKC,0.00,VWS V14.00,2013-05-08 06:27:00,
2013-05-08 02:32:00,57.2,49.7,28.91,SSE,153,0.0,0.0,76,0.00,,SKC,0.00,VWS V14.00,2013-05-08 06:32:00,
2013-05-08 02:37:00,57.2,49.7,28.88,SSE,153,0.0,0.0,76,0.00,,SKC,0.00,VWS V14.00,2013-05-08 06:37:00,
2013-05-08 02:42:00,57.2,49.7,28.88,SE,145,0.0,0.0,76,0.00,,SKC,0.00,VWS V14.00,2013-05-08 06:42:00,
2013-05-08 02:47:00,57.2,50.1,28.88,South,187,0.0,3.1,77,0.00,,SKC,0.00,VWS V14.00,2013-05-08 06:47:00,
2013-05-08 02:52:00,57.2,50.1,28.91,SSW,192,0.0,0.0,77,0.00,,SKC,0.00,VWS V14.00,2013-05-08 06:52:00,
2013-05-08 02:57:00,57.2,50.1,28.91,SSE,160,4.8,4.8,77,0.00,,SKC,0.00,VWS V14.00,2013-05-08 06:57:00,
2013-05-08 03:02:00,57.2,50.1,28.91,ESE,119,0.0,0.0,77,0.00,,SKC,0.00,VWS V14.00,2013-05-08 07:02:00,
2013-05-08 03:07:00,57.2,50.1,28.91,ESE,108,0.0,3.6,77,0.00,,SKC,0.00,VWS V14.00,2013-05-08 07:07:00,
2013-05-08 03:12:00,57.2,50.1,28.91,SE,137,0.0,0.0,77,0.00,,SKC,0.00,VWS V14.00,2013-05-08 07:12:00,
2013-05-08 03:17:00,57.2,50.4,28.91,SE,142,0.0,4.0,78,0.00,,SKC,0.00,VWS V14.00,2013-05-08 07:17:00,
2013-05-08 03:22:00,57.2,50.4,28.88,SSE,147,0.0,0.0,78,0.00,,SKC,0.00,VWS V14.00,2013-05-08 07:22:00,
2013-05-08 03:27:00,57.2,50.4,28.88,ESE,118,2.7,2.7,78,0.00,,SKC,0.00,VWS V14.00,2013-05-08 07:27:00,
2013-05-08 03:32:00,57.2,50.4,28.88,SE,130,0.0,0.0,78,0.00,,SKC,0.00,VWS V14.00,2013-05-08 07:32:00,
2013-05-08 03:37:00,57.2,50.4,28.88,East,86,4.3,4.3,78,0.00,,SKC,0.00,VWS V14.00,2013-05-08 07:37:00,
2013-05-08 03:42:00,57.2,50.4,28.88,East,97,0.0,0.0,78,0.00,,SKC,0.00,VWS V14.00,2013-05-08 07:42:00,
2013-05-08 03:47:00,57.2,50.8,28.88,ESE,119,0.0,2.7,79,0.00,,SKC,0.00,VWS V14.00,2013-05-08 07:47:00,
2013-05-08 03:52:00,57.2,50.8,28.88,SE,130,0.0,0.0,79,0.00,,SKC,0.00,VWS V14.00,2013-05-08 07:52:00,
2013-05-08 03:57:00,57.2,50.8,28.88,SE,130,0.0,0.0,79,0.00,,SKC,0.00,VWS V14.00,2013-05-08 07:57:00,
2013-05-08 04:02:00,57.2,50.8,28.88,SE,130,0.0,0.0,79,0.00,,SKC,0.00,VWS V14.00,2013-05-08 08:02:00,
2013-05-08 04:07:00,57.2,50.8,28.91,SSW,196,0.0,0.0,79,0.00,,SKC,0.00,VWS V14.00,2013-05-08 08:07:00,
2013-05-08 04:12:00,57.2,50.8,28.91,SSW,196,0.0,0.0,79,0.04,,SKC,0.04,VWS V14.00,2013-05-08 08:12:00,
2013-05-08 04:17:00,57.2,50.8,28.91,SSW,200,0.0,0.0,79,0.04,,SKC,0.04,VWS V14.00,2013-05-08 08:17:00,
2013-05-08 04:22:00,57.2,50.8,28.91,SSW,199,0.0,0.0,79,0.04,,SKC,0.04,VWS V14.00,2013-05-08 08:22:00,
2013-05-08 04:27:00,57.2,50.8,28.91,SSE,158,0.0,0.0,79,0.04,,SKC,0.04,VWS V14.00,2013-05-08 08:27:00,
2013-05-08 04:32:00,57.0,50.9,28.91,SSE,158,0.0,0.0,80,0.04,,SKC,0.04,VWS V14.00,2013-05-08 08:32:00,
2013-05-08 04:37:00,57.0,50.9,28.91,SSE,158,0.0,0.0,80,0.04,,SKC,0.04,VWS V14.00,2013-05-08 08:37:00,
2013-05-08 04:42:00,57.0,50.9,28.91,ESE,108,0.0,0.0,80,0.04,,SKC,0.04,VWS V14.00,2013-05-08 08:42:00,
2013-05-08 04:47:00,57.0,50.9,28.91,ESE,114,0.0,0.0,80,0.04,,SKC,0.04,VWS V14.00,2013-05-08 08:47:00,
2013-05-08 04:52:00,57.0,50.9,28.91,SSE,160,0.0,0.0,80,0.04,,SKC,0.04,VWS V14.00,2013-05-08 08:52:00,
2013-05-08 04:57:00,57.0,50.9,28.91,ESE,123,0.0,4.0,80,0.04,,SKC,0.04,VWS V14.00,2013-05-08 08:57:00,
2013-05-08 05:02:00,57.0,50.9,28.91,ESE,103,0.0,0.0,80,0.04,,SKC,0.04,VWS V14.00,2013-05-08 09:02:00,
2013-05-08 05:07:00,57.0,50.9,28.91,ESE,103,0.0,0.0,80,0.04,,SKC,0.04,VWS V14.00,2013-05-08 09:07:00,
2013-05-08 05:12:00,56.8,51.1,28.91,ESE,103,0.0,0.0,81,0.04,,SKC,0.04,VWS V14.00,2013-05-08 09:12:00,
2013-05-08 05:17:00,56.8,51.1,28.91,ESE,110,0.0,0.0,81,0.04,,SKC,0.04,VWS V14.00,2013-05-08 09:17:00,
2013-05-08 05:22:00,56.8,51.1,28.91,ESE,110,0.0,0.0,81,0.00,,SKC,0.04,VWS V14.00,2013-05-08 09:22:00,
2013-05-08 05:27:00,56.8,51.1,28.91,ESE,110,0.0,0.0,81,0.00,,SKC,0.04,VWS V14.00,2013-05-08 09:27:00,
2013-05-08 05:32:00,56.8,51.1,28.91,ESE,110,0.0,0.0,81,0.00,,SKC,0.04,VWS V14.00,2013-05-08 09:32:00,
2013-05-08 05:37:00,56.8,51.1,28.91,ESE,110,0.0,0.0,81,0.00,,SKC,0.04,VWS V14.00,2013-05-08 09:37:00,
2013-05-08 05:42:00,56.8,51.1,28.91,ESE,110,0.0,0.0,81,0.00,,SKC,0.04,VWS V14.00,2013-05-08 09:42:00,
2013-05-08 05:47:00,56.8,51.1,28.91,SSW,200,0.0,0.0,81,0.00,,SKC,0.04,VWS V14.00,2013-05-08 09:47:00,
2013-05-08 05:52:00,56.8,51.1,28.91,SSW,200,0.0,0.0,81,0.00,,SKC,0.04,VWS V14.00,2013-05-08 09:52:00,
2013-05-08 05:58:00,56.8,51.1,28.91,SSW,200,0.0,0.0,81,0.00,,SKC,0.04,VWS V14.00,2013-05-08 09:58:00,
2013-05-08 06:03:00,56.8,51.1,28.91,SSW,206,0.0,0.0,81,0.00,,SKC,0.04,VWS V14.00,2013-05-08 10:03:00,
2013-05-08 06:08:00,56.8,51.4,28.91,SW,221,0.0,0.0,82,0.00,,SKC,0.04,VWS V14.00,2013-05-08 10:08:00,
2013-05-08 06:13:00,56.8,51.4,28.91,SW,228,0.0,0.0,82,0.00,,SKC,0.04,VWS V14.00,2013-05-08 10:13:00,
2013-05-08 06:18:00,56.8,51.4,28.91,SW,228,0.0,0.0,82,0.00,,SKC,0.04,VWS V14.00,2013-05-08 10:18:00,
2013-05-08 06:23:00,56.8,51.4,28.91,SW,228,0.0,0.0,82,0.00,,SKC,0.04,VWS V14.00,2013-05-08 10:23:00,
2013-05-08 06:28:00,56.8,51.4,28.91,SW,228,0.0,0.0,82,0.00,,SKC,0.04,VWS V14.00,2013-05-08 10:28:00,
2013-05-08 06:33:00,56.8,51.4,28.91,SW,228,0.0,0.0,82,0.00,,SKC,0.04,VWS V14.00,2013-05-08 10:33:00,
2013-05-08 06:38:00,56.8,51.4,28.91,SW,228,0.0,0.0,82,0.00,,SKC,0.04,VWS V14.00,2013-05-08 10:38:00,
2013-05-08 06:43:00,56.8,51.4,28.91,SW,228,0.0,0.0,82,0.00,,SKC,0.04,VWS V14.00,2013-05-08 10:43:00,
2013-05-08 06:48:00,56.8,51.4,28.91,SW,228,0.0,0.0,82,0.00,,SKC,0.04,VWS V14.00,2013-05-08 10:48:00,
2013-05-08 06:53:00,56.8,51.4,28.91,SW,228,0.0,0.0,82,0.00,,SKC,0.04,VWS V14.00,2013-05-08 10:53:00,
2013-05-08 06:58:00,56.8,51.4,28.91,SW,228,0.0,0.0,82,0.00,,SKC,0.04,VWS V14.00,2013-05-08 10:58:00,
2013-05-08 07:03:00,56.8,51.4,28.94,SW,228,0.0,0.0,82,0.00,,SKC,0.04,VWS V14.00,2013-05-08 11:03:00,
2013-05-08 07:08:00,56.8,51.4,28.94,SW,227,0.0,0.0,82,0.00,,SKC,0.04,VWS V14.00,2013-05-08 11:08:00,
2013-05-08 07:13:00,56.8,51.4,28.94,SSE,151,0.0,0.0,82,0.00,,SKC,0.04,VWS V14.00,2013-05-08 11:13:00,
2013-05-08 07:18:00,56.8,51.4,28.94,SSE,166,0.0,2.2,82,0.00,,SKC,0.04,VWS V14.00,2013-05-08 11:18:00,
2013-05-08 07:23:00,56.8,51.7,28.94,SSE,164,0.0,0.0,83,0.00,,SKC,0.04,VWS V14.00,2013-05-08 11:23:00,
2013-05-08 07:28:00,57.0,51.9,28.94,SSE,160,0.0,0.0,83,0.00,,SKC,0.04,VWS V14.00,2013-05-08 11:28:00,
2013-05-08 07:33:00,57.0,51.9,28.94,SE,138,0.0,0.0,83,0.00,,SKC,0.04,VWS V14.00,2013-05-08 11:33:00,
2013-05-08 07:38:00,57.0,51.9,28.94,SE,139,0.0,0.0,83,0.00,,SKC,0.04,VWS V14.00,2013-05-08 11:38:00,
2013-05-08 07:43:00,57.2,52.1,28.94,SE,131,0.0,0.0,83,0.00,,SKC,0.04,VWS V14.00,2013-05-08 11:43:00,
2013-05-08 07:48:00,57.2,52.1,28.94,SE,132,0.0,0.0,83,0.00,,SKC,0.04,VWS V14.00,2013-05-08 11:48:00,
2013-05-08 07:53:00,57.4,52.3,28.94,SE,142,0.0,3.6,83,0.00,,SKC,0.04,VWS V14.00,2013-05-08 11:53:00,
2013-05-08 07:58:00,57.4,52.3,28.94,ESE,111,0.0,3.6,83,0.00,,SKC,0.04,VWS V14.00,2013-05-08 11:58:00,
2013-05-08 08:03:00,57.6,52.4,28.94,WSW,257,0.0,3.6,83,0.00,,SKC,0.04,VWS V14.00,2013-05-08 12:03:00,
2013-05-08 08:08:00,57.6,52.4,28.94,ESE,107,0.0,3.6,83,0.00,,SKC,0.04,VWS V14.00,2013-05-08 12:08:00,
2013-05-08 08:13:00,57.6,52.4,28.94,SSE,153,0.0,0.0,83,0.00,,SKC,0.04,VWS V14.00,2013-05-08 12:13:00,
2013-05-08 08:18:00,57.7,52.6,28.97,ENE,58,0.0,3.1,83,0.00,,SKC,0.04,VWS V14.00,2013-05-08 12:18:00,
2013-05-08 08:23:00,57.7,52.6,28.97,NW,318,0.0,0.0,83,0.00,,SKC,0.04,VWS V14.00,2013-05-08 12:23:00,
2013-05-08 08:28:00,57.9,52.8,28.97,NW,306,0.0,0.0,83,0.00,,SKC,0.04,VWS V14.00,2013-05-08 12:28:00,
2013-05-08 08:33:00,58.1,53.0,28.97,ENE,71,0.0,0.0,83,0.00,,SKC,0.04,VWS V14.00,2013-05-08 12:33:00,
2013-05-08 08:38:00,58.3,53.5,28.97,WSW,258,0.0,4.0,84,0.00,,SKC,0.04,VWS V14.00,2013-05-08 12:38:00,
2013-05-08 08:43:00,58.5,53.7,28.97,ESE,115,0.0,0.0,84,0.00,,SKC,0.04,VWS V14.00,2013-05-08 12:43:00,
2013-05-08 08:48:00,58.6,53.8,28.97,SE,131,0.0,0.0,84,0.00,,SKC,0.04,VWS V14.00,2013-05-08 12:48:00,
2013-05-08 08:53:00,58.8,54.0,28.97,SE,141,0.0,0.0,84,0.00,,SKC,0.04,VWS V14.00,2013-05-08 12:53:00,
2013-05-08 08:58:00,59.0,54.2,28.97,ESE,115,0.0,0.0,84,0.00,,SKC,0.04,VWS V14.00,2013-05-08 12:58:00,
2013-05-08 09:03:00,59.4,54.5,28.97,ESE,105,0.0,0.0,84,0.00,,SKC,0.04,VWS V14.00,2013-05-08 13:03:00,
2013-05-08 09:08:00,59.7,54.9,28.97,SSE,162,0.0,3.1,84,0.00,,SKC,0.04,VWS V14.00,2013-05-08 13:08:00,
2013-05-08 09:13:00,60.1,55.2,28.97,South,174,3.8,4.5,84,0.00,,SKC,0.04,VWS V14.00,2013-05-08 13:13:00,
2013-05-08 09:18:00,60.3,55.4,28.97,WSW,251,4.3,4.9,84,0.00,,SKC,0.04,VWS V14.00,2013-05-08 13:18:00,
2013-05-08 09:23:00,60.3,55.4,28.97,SE,136,0.0,3.6,84,0.00,,SKC,0.04,VWS V14.00,2013-05-08 13:23:00,
2013-05-08 09:28:00,60.4,55.6,28.97,SE,137,0.0,4.9,84,0.00,,SKC,0.04,VWS V14.00,2013-05-08 13:28:00,
2013-05-08 09:33:00,60.4,55.6,28.97,SSW,212,0.0,3.1,84,0.00,,SKC,0.04,VWS V14.00,2013-05-08 13:33:00,
2013-05-08 09:38:00,60.4,55.6,28.97,ESE,121,0.0,3.1,84,0.00,,SKC,0.04,VWS V14.00,2013-05-08 13:38:00,
2013-05-08 09:43:00,60.4,55.6,28.97,South,171,0.0,2.7,84,0.00,,SKC,0.04,VWS V14.00,2013-05-08 13:43:00,
2013-05-08 09:48:00,60.4,55.6,28.97,SSW,204,0.0,3.1,84,0.00,,SKC,0.04,VWS V14.00,2013-05-08 13:48:00,
2013-05-08 09:53:00,60.4,55.3,28.97,SE,138,0.0,3.1,83,0.00,,SKC,0.04,VWS V14.00,2013-05-08 13:53:00,
2013-05-08 09:58:00,60.4,55.3,28.97,North,353,0.0,3.6,83,0.00,,SKC,0.04,VWS V14.00,2013-05-08 13:58:00,
2013-05-08 10:03:00,60.6,55.4,28.97,ESE,111,0.0,3.6,83,0.00,,SKC,0.04,VWS V14.00,2013-05-08 14:03:00,
2013-05-08 10:08:00,61.0,55.8,28.97,East,86,0.0,4.0,83,0.00,,SKC,0.04,VWS V14.00,2013-05-08 14:08:00,
2013-05-08 10:13:00,61.5,56.3,28.97,SE,137,0.0,4.0,83,0.00,,SKC,0.04,VWS V14.00,2013-05-08 14:13:00,
2013-05-08 10:18:00,62.1,56.8,28.97,SE,146,3.2,4.0,83,0.00,,SKC,0.04,VWS V14.00,2013-05-08 14:18:00,
2013-05-08 10:23:00,62.8,57.5,28.97,ENE,70,4.8,5.8,83,0.00,,SKC,0.04,VWS V14.00,2013-05-08 14:23:00,
2013-05-08 10:28:00,63.1,57.9,28.97,NNW,328,0.0,6.3,83,0.00,,SKC,0.04,VWS V14.00,2013-05-08 14:28:00,
2013-05-08 10:33:00,63.5,57.9,28.97,SSW,201,0.0,3.6,82,0.00,,SKC,0.04,VWS V14.00,2013-05-08 14:33:00,
2013-05-08 10:38:00,63.9,58.3,28.97,SW,221,0.0,6.3,82,0.00,,SKC,0.04,VWS V14.00,2013-05-08 14:38:00,
2013-05-08 10:43:00,64.0,58.4,28.97,West,259,0.0,4.5,82,0.00,,SKC,0.04,VWS V14.00,2013-05-08 14:43:00,
2013-05-08 10:48:00,64.2,58.6,29.00,South,182,4.3,4.5,82,0.00,,SKC,0.04,VWS V14.00,2013-05-08 14:48:00,
2013-05-08 10:53:00,64.9,59.0,29.00,NNW,327,0.0,7.2,81,0.00,,SKC,0.04,VWS V14.00,2013-05-08 14:53:00,
2013-05-08 10:58:00,65.8,59.8,29.00,SW,229,2.7,7.2,81,0.00,,SKC,0.04,VWS V14.00,2013-05-08 14:58:00,
2013-05-08 11:03:00,66.0,60.0,28.97,SSW,202,6.4,7.2,81,0.00,,SKC,0.04,VWS V14.00,2013-05-08 15:03:00,
2013-05-08 11:08:00,66.6,60.2,28.97,SSW,199,0.0,7.2,80,0.00,,SKC,0.04,VWS V14.00,2013-05-08 15:08:00,
2013-05-08 11:13:00,66.9,60.6,28.97,SW,223,0.0,3.6,80,0.00,,SKC,0.04,VWS V14.00,2013-05-08 15:13:00,
2013-05-08 11:18:00,67.1,60.4,29.00,ENE,60,0.0,5.8,79,0.00,,SKC,0.04,VWS V14.00,2013-05-08 15:18:00,
2013-05-08 11:23:00,67.3,60.5,29.00,SSE,161,0.0,3.1,79,0.00,,SKC,0.04,VWS V14.00,2013-05-08 15:23:00,
2013-05-08 11:28:00,67.6,60.9,29.00,NW,309,0.0,4.9,79,0.00,,SKC,0.04,VWS V14.00,2013-05-08 15:28:00,
2013-05-08 11:34:00,67.6,60.5,29.00,NW,307,0.0,0.0,78,0.00,,SKC,0.04,VWS V14.00,2013-05-08 15:34:00,
2013-05-08 11:39:00,67.6,60.5,29.00,SSW,213,0.0,0.0,78,0.00,,SKC,0.04,VWS V14.00,2013-05-08 15:39:00,
2013-05-08 11:44:00,67.6,60.5,29.00,West,264,0.0,0.0,78,0.00,,SKC,0.04,VWS V14.00,2013-05-08 15:44:00,
2013-05-08 11:49:00,67.5,60.0,29.00,SSW,196,0.0,3.6,77,0.00,,SKC,0.04,VWS V14.00,2013-05-08 15:49:00,
2013-05-08 11:54:00,67.5,60.0,29.00,SW,224,0.0,0.0,77,0.00,,SKC,0.04,VWS V14.00,2013-05-08 15:54:00,
2013-05-08 11:59:00,67.1,59.3,29.00,SE,145,0.0,2.7,76,0.00,,SKC,0.04,VWS V14.00,2013-05-08 15:59:00,
2013-05-08 12:04:00,67.1,59.7,29.00,SE,146,0.0,0.0,77,0.00,,SKC,0.04,VWS V14.00,2013-05-08 16:04:00,
2013-05-08 12:09:00,67.3,59.5,29.00,SE,126,0.0,0.0,76,0.00,,SKC,0.04,VWS V14.00,2013-05-08 16:09:00,
2013-05-08 12:14:00,67.5,60.0,29.00,ESE,103,0.0,0.0,77,0.00,,SKC,0.04,VWS V14.00,2013-05-08 16:14:00,
2013-05-08 12:19:00,67.8,60.3,29.00,SE,140,0.0,2.7,77,0.00,,SKC,0.04,VWS V14.00,2013-05-08 16:19:00,
2013-05-08 12:24:00,68.2,60.3,29.00,South,188,3.2,3.6,76,0.00,,SKC,0.04,VWS V14.00,2013-05-08 16:24:00,
2013-05-08 12:29:00,68.2,60.0,29.00,South,187,0.0,3.6,75,0.00,,SKC,0.04,VWS V14.00,2013-05-08 16:29:00,
2013-05-08 12:34:00,68.0,59.8,29.00,SSW,213,0.0,0.0,75,0.00,,SKC,0.04,VWS V14.00,2013-05-08 16:34:00,
2013-05-08 12:39:00,68.0,59.8,29.00,South,191,0.0,2.7,75,0.00,,SKC,0.04,VWS V14.00,2013-05-08 16:39:00,
2013-05-08 12:44:00,68.4,60.1,29.00,South,179,0.0,0.0,75,0.00,,SKC,0.04,VWS V14.00,2013-05-08 16:44:00,
2013-05-08 12:49:00,68.5,60.3,28.97,ESE,120,0.0,2.7,75,0.00,,SKC,0.04,VWS V14.00,2013-05-08 16:49:00,
2013-05-08 12:54:00,69.1,60.5,28.97,South,173,0.0,3.6,74,0.00,,SKC,0.04,VWS V14.00,2013-05-08 16:54:00,
2013-05-08 12:59:00,69.4,60.0,28.97,SW,219,0.0,3.6,72,0.00,,SKC,0.04,VWS V14.00,2013-05-08 16:59:00,
2013-05-08 13:04:00,69.8,60.4,28.97,SSE,154,3.2,3.2,72,0.00,,SKC,0.04,VWS V14.00,2013-05-08 17:04:00,
2013-05-08 13:09:00,70.7,61.6,28.97,North,357,0.0,3.1,73,0.00,,SKC,0.04,VWS V14.00,2013-05-08 17:09:00,
2013-05-08 13:14:00,71.2,61.8,28.97,SE,126,0.0,0.0,72,0.00,,SKC,0.04,VWS V14.00,2013-05-08 17:14:00,
2013-05-08 13:19:00,72.0,61.7,28.97,SSE,149,2.7,3.1,70,0.00,,SKC,0.04,VWS V14.00,2013-05-08 17:19:00,
2013-05-08 13:24:00,72.1,61.8,28.97,NW,313,0.0,0.0,70,0.00,,SKC,0.04,VWS V14.00,2013-05-08 17:24:00,
2013-05-08 13:29:00,72.0,61.7,28.97,SSW,192,6.4,6.4,70,0.00,,SKC,0.04,VWS V14.00,2013-05-08 17:29:00,
2013-05-08 13:34:00,71.8,61.1,28.97,SW,232,0.0,7.2,69,0.00,,SKC,0.04,VWS V14.00,2013-05-08 17:34:00,
2013-05-08 13:39:00,71.6,60.9,28.97,SW,218,3.8,7.2,69,0.00,,SKC,0.04,VWS V14.00,2013-05-08 17:39:00,
2013-05-08 13:44:00,71.1,60.4,28.97,SW,219,0.0,5.4,69,0.00,,SKC,0.04,VWS V14.00,2013-05-08 17:44:00,
2013-05-08 13:49:00,70.5,59.9,28.97,SSW,208,0.0,5.4,69,0.00,,SKC,0.04,VWS V14.00,2013-05-08 17:49:00,
2013-05-08 13:54:00,69.6,59.0,28.97,West,277,0.0,3.6,69,0.04,,SKC,0.08,VWS V14.00,2013-05-08 17:54:00,
2013-05-08 13:59:00,68.7,58.5,28.97,SSW,200,0.0,3.6,70,0.04,,SKC,0.08,VWS V14.00,2013-05-08 17:59:00,
2013-05-08 14:04:00,68.4,58.6,28.97,WSW,237,0.0,0.0,71,0.04,,SKC,0.08,VWS V14.00,2013-05-08 18:04:00,
2013-05-08 14:09:00,68.4,58.6,28.97,SE,130,0.0,0.0,71,0.04,,SKC,0.08,VWS V14.00,2013-05-08 18:09:00,
2013-05-08 14:14:00,68.5,59.2,28.97,SE,130,0.0,0.0,72,0.04,,SKC,0.08,VWS V14.00,2013-05-08 18:14:00,
2013-05-08 14:19:00,69.3,60.2,28.97,WSW,244,0.0,0.0,73,0.04,,SKC,0.08,VWS V14.00,2013-05-08 18:19:00,
2013-05-08 14:24:00,69.4,60.4,28.97,SSW,212,0.0,3.1,73,0.12,,SKC,0.16,VWS V14.00,2013-05-08 18:24:00,
2013-05-08 14:29:00,69.6,60.6,28.97,ESE,118,0.0,3.1,73,0.12,,SKC,0.16,VWS V14.00,2013-05-08 18:29:00,
2013-05-08 14:34:00,70.0,60.9,28.97,WNW,290,0.0,3.6,73,0.12,,SKC,0.16,VWS V14.00,2013-05-08 18:34:00,
2013-05-08 14:39:00,70.7,62.0,28.97,SW,227,0.0,4.9,74,0.12,,SKC,0.16,VWS V14.00,2013-05-08 18:39:00,
2013-05-08 14:44:00,71.6,62.5,28.97,SW,215,0.0,3.6,73,0.12,,SKC,0.16,VWS V14.00,2013-05-08 18:44:00,
2013-05-08 14:49:00,71.6,62.1,28.97,SSW,205,2.7,6.3,72,0.12,,SKC,0.16,VWS V14.00,2013-05-08 18:49:00,
2013-05-08 14:54:00,72.1,63.0,28.97,SSW,207,2.7,5.4,73,0.12,,SKC,0.16,VWS V14.00,2013-05-08 18:54:00,
2013-05-08 14:59:00,72.7,63.1,28.97,South,169,0.0,5.4,72,0.12,,SKC,0.16,VWS V14.00,2013-05-08 18:59:00,
2013-05-08 15:04:00,72.7,62.7,28.97,South,176,6.4,6.4,71,0.08,,SKC,0.16,VWS V14.00,2013-05-08 19:04:00,
2013-05-08 15:09:00,72.3,62.4,28.97,WSW,244,0.0,6.3,71,0.08,,SKC,0.16,VWS V14.00,2013-05-08 19:09:00,
2013-05-08 15:14:00,72.3,62.0,28.97,West,267,0.0,4.0,70,0.08,,SKC,0.16,VWS V14.00,2013-05-08 19:14:00,
2013-05-08 15:19:00,72.7,62.7,28.97,SW,226,2.7,5.8,71,0.08,,SKC,0.16,VWS V14.00,2013-05-08 19:19:00,
2013-05-08 15:24:00,73.0,62.7,28.97,SW,229,0.0,0.0,70,0.08,,SKC,0.16,VWS V14.00,2013-05-08 19:24:00,
2013-05-08 15:29:00,73.4,62.6,28.97,SW,221,0.0,0.0,69,0.08,,SKC,0.16,VWS V14.00,2013-05-08 19:29:00,
2013-05-08 15:34:00,73.8,63.0,28.97,WSW,258,0.0,4.0,69,0.08,,SKC,0.16,VWS V14.00,2013-05-08 19:34:00,
2013-05-08 15:39:00,73.9,62.7,28.97,WNW,283,0.0,4.0,68,0.08,,SKC,0.16,VWS V14.00,2013-05-08 19:39:00,
2013-05-08 15:44:00,73.8,62.1,28.97,WSW,243,0.0,0.0,67,0.00,,SKC,0.16,VWS V14.00,2013-05-08 19:44:00,
2013-05-08 15:49:00,73.2,61.6,28.97,WSW,247,4.3,4.9,67,0.00,,SKC,0.16,VWS V14.00,2013-05-08 19:49:00,
2013-05-08 15:54:00,72.9,61.3,28.97,WSW,245,0.0,3.6,67,0.00,,SKC,0.16,VWS V14.00,2013-05-08 19:54:00,
2013-05-08 15:59:00,72.7,61.1,28.97,ENE,69,0.0,0.0,67,0.00,,SKC,0.16,VWS V14.00,2013-05-08 19:59:00,
2013-05-08 16:04:00,72.3,60.8,28.94,North,3,0.0,0.0,67,0.00,,SKC,0.16,VWS V14.00,2013-05-08 20:04:00,
2013-05-08 16:09:00,72.1,59.7,28.94,NW,316,0.0,2.7,65,0.00,,SKC,0.16,VWS V14.00,2013-05-08 20:09:00,
2013-05-08 16:14:00,72.1,59.7,28.94,NW,307,0.0,3.6,65,0.00,,SKC,0.16,VWS V14.00,2013-05-08 20:14:00,
2013-05-08 16:19:00,72.1,59.7,28.94,NNW,329,0.0,0.0,65,0.00,,SKC,0.16,VWS V14.00,2013-05-08 20:19:00,
2013-05-08 16:24:00,71.8,59.0,28.94,NW,309,0.0,2.7,64,0.00,,SKC,0.16,VWS V14.00,2013-05-08 20:24:00,
2013-05-08 16:29:00,71.8,59.0,28.94,NW,304,0.0,0.0,64,0.00,,SKC,0.16,VWS V14.00,2013-05-08 20:29:00,
2013-05-08 16:34:00,72.0,59.1,28.94,NW,324,0.0,0.0,64,0.00,,SKC,0.16,VWS V14.00,2013-05-08 20:34:00,
2013-05-08 16:39:00,72.3,59.5,28.94,WSW,243,0.0,0.0,64,0.00,,SKC,0.16,VWS V14.00,2013-05-08 20:39:00,
2013-05-08 16:45:00,72.1,58.9,28.94,WNW,296,3.2,3.6,63,0.00,,SKC,0.16,VWS V14.00,2013-05-08 20:45:00,
2013-05-08 16:50:00,72.0,58.7,28.94,SW,222,0.0,0.0,63,0.00,,SKC,0.16,VWS V14.00,2013-05-08 20:50:00,
2013-05-08 16:55:00,72.1,58.9,28.94,SW,222,0.0,0.0,63,0.00,,SKC,0.16,VWS V14.00,2013-05-08 20:55:00,
2013-05-08 17:00:00,72.3,58.6,28.94,NW,312,0.0,0.0,62,0.00,,SKC,0.16,VWS V14.00,2013-05-08 21:00:00,
2013-05-08 17:05:00,72.1,57.5,28.94,SW,214,0.0,0.0,60,0.00,,SKC,0.16,VWS V14.00,2013-05-08 21:05:00,
2013-05-08 17:10:00,72.0,57.3,28.94,SE,133,0.0,0.0,60,0.00,,SKC,0.16,VWS V14.00,2013-05-08 21:10:00,
2013-05-08 17:15:00,71.8,58.1,28.94,SE,133,0.0,0.0,62,0.00,,SKC,0.16,VWS V14.00,2013-05-08 21:15:00,
2013-05-08 17:20:00,71.6,57.9,28.94,SE,133,0.0,0.0,62,0.00,,SKC,0.16,VWS V14.00,2013-05-08 21:20:00,
2013-05-08 17:25:00,71.6,57.9,28.94,SE,133,0.0,0.0,62,0.00,,SKC,0.16,VWS V14.00,2013-05-08 21:25:00,
2013-05-08 17:30:00,71.6,57.5,28.94,SE,133,0.0,0.0,61,0.00,,SKC,0.16,VWS V14.00,2013-05-08 21:30:00,
2013-05-08 17:35:00,71.4,57.7,28.94,South,169,0.0,0.0,62,0.00,,SKC,0.16,VWS V14.00,2013-05-08 21:35:00,
2013-05-08 17:40:00,71.2,58.0,28.94,SE,146,0.0,0.0,63,0.00,,SKC,0.16,VWS V14.00,2013-05-08 21:40:00,
2013-05-08 17:45:00,71.1,57.8,28.94,SSE,159,0.0,0.0,63,0.00,,SKC,0.16,VWS V14.00,2013-05-08 21:45:00,
2013-05-08 17:50:00,71.2,57.6,28.94,SSE,162,0.0,0.0,62,0.00,,SKC,0.16,VWS V14.00,2013-05-08 21:50:00,
2013-05-08 17:55:00,71.4,57.7,28.94,SSW,199,0.0,3.6,62,0.00,,SKC,0.16,VWS V14.00,2013-05-08 21:55:00,
2013-05-08 18:00:00,71.2,57.6,28.94,SW,232,0.0,0.0,62,0.00,,SKC,0.16,VWS V14.00,2013-05-08 22:00:00,
2013-05-08 18:05:00,71.4,57.7,28.94,SE,146,0.0,5.4,62,0.00,,SKC,0.16,VWS V14.00,2013-05-08 22:05:00,
2013-05-08 18:10:00,71.4,57.7,28.94,SSW,196,0.0,0.0,62,0.00,,SKC,0.16,VWS V14.00,2013-05-08 22:10:00,
2013-05-08 18:15:00,71.4,57.3,28.94,SW,227,0.0,3.1,61,0.00,,SKC,0.16,VWS V14.00,2013-05-08 22:15:00,
2013-05-08 18:20:00,71.1,57.4,28.94,SSW,194,0.0,0.0,62,0.00,,SKC,0.16,VWS V14.00,2013-05-08 22:20:00,
2013-05-08 18:25:00,71.1,57.0,28.94,SSW,202,2.7,3.6,61,0.00,,SKC,0.16,VWS V14.00,2013-05-08 22:25:00,
2013-05-08 18:30:00,70.9,56.8,28.94,WSW,258,0.0,0.0,61,0.00,,SKC,0.16,VWS V14.00,2013-05-08 22:30:00,
2013-05-08 18:35:00,70.5,56.4,28.94,South,177,0.0,0.0,61,0.00,,SKC,0.16,VWS V14.00,2013-05-08 22:35:00,
2013-05-08 18:40:00,70.0,55.9,28.94,South,177,0.0,0.0,61,0.00,,SKC,0.16,VWS V14.00,2013-05-08 22:40:00,
2013-05-08 18:45:00,69.1,55.5,28.94,North,8,3.2,3.2,62,0.00,,SKC,0.16,VWS V14.00,2013-05-08 22:45:00,
2013-05-08 18:50:00,67.1,53.7,28.94,North,8,9.1,9.1,62,0.08,,SKC,0.24,VWS V14.00,2013-05-08 22:50:00,
2013-05-08 18:55:00,64.6,52.1,28.94,NNE,26,0.0,7.6,64,0.16,,SKC,0.32,VWS V14.00,2013-05-08 22:55:00,
2013-05-08 19:00:00,63.9,52.7,28.94,NNE,26,0.0,0.0,67,0.16,,SKC,0.32,VWS V14.00,2013-05-08 23:00:00,
2013-05-08 19:05:00,64.4,53.6,28.94,ENE,76,0.0,0.0,68,0.16,,SKC,0.32,VWS V14.00,2013-05-08 23:05:00,
2013-05-08 19:10:00,64.8,54.4,28.94,ENE,76,0.0,0.0,69,0.16,,SKC,0.32,VWS V14.00,2013-05-08 23:10:00,
2013-05-08 19:15:00,65.1,55.1,28.94,ENE,76,0.0,0.0,70,0.16,,SKC,0.32,VWS V14.00,2013-05-08 23:15:00,
2013-05-08 19:20:00,65.3,55.7,28.94,ENE,76,0.0,0.0,71,0.16,,SKC,0.32,VWS V14.00,2013-05-08 23:20:00,
2013-05-08 19:25:00,65.5,56.2,28.94,ENE,76,0.0,0.0,72,0.16,,SKC,0.32,VWS V14.00,2013-05-08 23:25:00,
2013-05-08 19:30:00,65.5,56.2,28.94,South,171,0.0,0.0,72,0.16,,SKC,0.32,VWS V14.00,2013-05-08 23:30:00,
2013-05-08 19:35:00,65.3,56.4,28.97,SW,227,0.0,3.1,73,0.16,,SKC,0.32,VWS V14.00,2013-05-08 23:35:00,
2013-05-08 19:40:00,65.1,56.3,28.97,SW,215,0.0,0.0,73,0.16,,SKC,0.32,VWS V14.00,2013-05-08 23:40:00,
2013-05-08 19:45:00,64.8,56.3,28.97,SW,215,0.0,0.0,74,0.16,,SKC,0.32,VWS V14.00,2013-05-08 23:45:00,
2013-05-08 19:50:00,64.4,55.9,28.97,SW,215,0.0,0.0,74,0.12,,SKC,0.32,VWS V14.00,2013-05-08 23:50:00,
2013-05-08 19:55:00,64.2,56.1,28.97,SW,214,0.0,0.0,75,0.12,,SKC,0.32,VWS V14.00,2013-05-08 23:55:00,
2013-05-08 20:00:00,63.9,55.8,28.97,SW,215,0.0,0.0,75,0.00,,SKC,0.32,VWS V14.00,2013-05-09 00:00:00,
2013-05-08 20:05:00,63.3,55.3,28.97,SW,214,0.0,0.0,75,0.00,,SKC,0.32,VWS V14.00,2013-05-09 00:05:00,
2013-05-08 20:10:00,63.1,55.5,28.97,SW,215,0.0,0.0,76,0.00,,SKC,0.32,VWS V14.00,2013-05-09 00:10:00,
2013-05-08 20:15:00,63.0,55.3,28.97,SW,214,0.0,0.0,76,0.00,,SKC,0.32,VWS V14.00,2013-05-09 00:15:00,
2013-05-08 20:20:00,62.8,55.5,28.97,SW,215,0.0,0.0,77,0.00,,SKC,0.32,VWS V14.00,2013-05-09 00:20:00,
2013-05-08 20:25:00,63.0,55.7,28.97,SW,214,0.0,0.0,77,0.00,,SKC,0.32,VWS V14.00,2013-05-09 00:25:00,
2013-05-08 20:30:00,62.6,55.3,28.97,SW,214,0.0,0.0,77,0.00,,SKC,0.32,VWS V14.00,2013-05-09 00:30:00,
2013-05-08 20:35:00,62.6,55.7,28.97,SW,215,0.0,0.0,78,0.00,,SKC,0.32,VWS V14.00,2013-05-09 00:35:00,
2013-05-08 20:40:00,62.4,55.5,28.97,SW,214,0.0,0.0,78,0.00,,SKC,0.32,VWS V14.00,2013-05-09 00:40:00,
2013-05-08 20:45:00,62.4,55.5,28.97,SW,214,0.0,0.0,78,0.00,,SKC,0.32,VWS V14.00,2013-05-09 00:45:00,
2013-05-08 20:50:00,62.1,55.1,28.97,SW,215,0.0,0.0,78,0.00,,SKC,0.32,VWS V14.00,2013-05-09 00:50:00,
2013-05-08 20:55:00,61.9,55.3,28.97,SW,215,0.0,0.0,79,0.00,,SKC,0.32,VWS V14.00,2013-05-09 00:55:00,
2013-05-08 21:00:00,61.9,55.3,28.97,SW,214,0.0,0.0,79,0.00,,SKC,0.32,VWS V14.00,2013-05-09 01:00:00,
2013-05-08 21:05:00,61.7,55.1,28.97,SW,214,0.0,0.0,79,0.00,,SKC,0.32,VWS V14.00,2013-05-09 01:05:00,
2013-05-08 21:10:00,61.7,55.5,28.97,SW,214,0.0,0.0,80,0.00,,SKC,0.32,VWS V14.00,2013-05-09 01:10:00,
2013-05-08 21:15:00,61.7,55.5,28.97,SW,214,0.0,0.0,80,0.00,,SKC,0.32,VWS V14.00,2013-05-09 01:15:00,
2013-05-08 21:20:00,61.7,55.5,28.97,SW,215,0.0,0.0,80,0.00,,SKC,0.32,VWS V14.00,2013-05-09 01:20:00,
2013-05-08 21:25:00,61.3,55.1,28.97,SW,214,0.0,0.0,80,0.00,,SKC,0.32,VWS V14.00,2013-05-09 01:25:00,
2013-05-08 21:30:00,61.2,55.0,28.97,SW,215,0.0,0.0,80,0.00,,SKC,0.32,VWS V14.00,2013-05-09 01:30:00,
2013-05-08 21:35:00,61.2,55.3,28.97,SW,215,0.0,0.0,81,0.00,,SKC,0.32,VWS V14.00,2013-05-09 01:35:00,
2013-05-08 21:40:00,61.2,55.3,28.97,SW,214,0.0,0.0,81,0.00,,SKC,0.32,VWS V14.00,2013-05-09 01:40:00,
2013-05-08 21:45:00,61.2,55.3,28.97,SW,214,0.0,0.0,81,0.00,,SKC,0.32,VWS V14.00,2013-05-09 01:45:00,
2013-05-08 21:50:00,61.2,55.3,29.00,SW,214,0.0,0.0,81,0.00,,SKC,0.32,VWS V14.00,2013-05-09 01:50:00,
2013-05-08 21:55:00,61.0,55.1,29.00,SW,215,0.0,0.0,81,0.00,,SKC,0.32,VWS V14.00,2013-05-09 01:55:00,
2013-05-08 22:00:00,60.8,54.9,29.00,SW,215,0.0,0.0,81,0.00,,SKC,0.32,VWS V14.00,2013-05-09 02:00:00,
2013-05-08 22:05:00,60.8,54.9,29.00,SW,214,0.0,0.0,81,0.00,,SKC,0.32,VWS V14.00,2013-05-09 02:05:00,
2013-05-08 22:10:00,60.6,55.1,29.00,NNE,23,4.3,4.3,82,0.00,,SKC,0.32,VWS V14.00,2013-05-09 02:10:00,
2013-05-08 22:15:00,60.6,55.1,29.00,North,2,0.0,3.6,82,0.00,,SKC,0.32,VWS V14.00,2013-05-09 02:15:00,
2013-05-08 22:20:00,60.8,55.3,29.00,North,2,0.0,0.0,82,0.00,,SKC,0.32,VWS V14.00,2013-05-09 02:20:00,
2013-05-08 22:25:00,60.8,55.3,29.00,North,2,0.0,0.0,82,0.00,,SKC,0.32,VWS V14.00,2013-05-09 02:25:00,
2013-05-08 22:30:00,60.8,55.3,29.00,North,2,0.0,0.0,82,0.00,,SKC,0.32,VWS V14.00,2013-05-09 02:30:00,
2013-05-08 22:36:00,60.8,55.3,29.03,North,2,0.0,0.0,82,0.00,,SKC,0.32,VWS V14.00,2013-05-09 02:36:00,
2013-05-08 22:41:00,60.6,55.1,29.03,North,2,0.0,0.0,82,0.00,,SKC,0.32,VWS V14.00,2013-05-09 02:41:00,
2013-05-08 22:46:00,60.6,55.4,29.03,North,2,0.0,0.0,83,0.00,,SKC,0.32,VWS V14.00,2013-05-09 02:46:00,
2013-05-08 22:51:00,60.6,55.4,29.03,North,2,0.0,0.0,83,0.00,,SKC,0.32,VWS V14.00,2013-05-09 02:51:00,
2013-05-08 22:56:00,60.4,55.3,29.03,North,2,0.0,0.0,83,0.00,,SKC,0.32,VWS V14.00,2013-05-09 02:56:00,
2013-05-08 23:01:00,60.4,55.3,29.03,North,2,0.0,0.0,83,0.00,,SKC,0.32,VWS V14.00,2013-05-09 03:01:00,
2013-05-08 23:06:00,60.3,55.1,29.03,North,2,0.0,0.0,83,0.00,,SKC,0.32,VWS V14.00,2013-05-09 03:06:00,
2013-05-08 23:11:00,60.1,54.9,29.03,North,2,0.0,0.0,83,0.00,,SKC,0.32,VWS V14.00,2013-05-09 03:11:00,
2013-05-08 23:16:00,60.1,54.9,29.03,North,2,0.0,0.0,83,0.00,,SKC,0.32,VWS V14.00,2013-05-09 03:16:00,
2013-05-08 23:21:00,59.9,54.7,29.03,North,2,0.0,0.0,83,0.00,,SKC,0.32,VWS V14.00,2013-05-09 03:21:00,
2013-05-08 23:26:00,59.9,54.7,29.03,North,2,0.0,0.0,83,0.00,,SKC,0.32,VWS V14.00,2013-05-09 03:26:00,
2013-05-08 23:31:00,59.7,54.6,29.03,North,2,0.0,0.0,83,0.00,,SKC,0.32,VWS V14.00,2013-05-09 03:31:00,
2013-05-08 23:36:00,59.5,54.4,29.03,North,2,0.0,0.0,83,0.00,,SKC,0.32,VWS V14.00,2013-05-09 03:36:00,
2013-05-08 23:41:00,59.4,54.2,29.03,North,2,0.0,0.0,83,0.00,,SKC,0.32,VWS V14.00,2013-05-09 03:41:00,
2013-05-08 23:46:00,59.4,54.2,29.03,North,2,0.0,0.0,83,0.00,,SKC,0.32,VWS V14.00,2013-05-09 03:46:00,
2013-05-08 23:51:00,59.4,54.2,29.03,North,2,0.0,0.0,83,0.00,,SKC,0.32,VWS V14.00,2013-05-09 03:51:00,
2013-05-08 23:56:00,59.2,54.0,29.03,North,2,0.0,0.0,83,0.00,,SKC,0.32,VWS V14.00,2013-05-09 03:56:00,